Time;durP1;ratioP1;P1;durP2;ratioP2;P2;SDS_P1;SDS_P2;PMS_P1;PMS_P2;Temp;Humidity;BMP_temperature;BMP_pressure;BME280_temperature;BME280_humidity;BME280_pressure;Samples;Min_cycle;Max_cycle;Signal;HPM_P1;HPM_P2
2023/09/02 00:00:33;;;;;;;3.37;3.17;;;;;;;15.69;100.00;97140.72;5038095;28;20277;-56
2023/09/02 00:03:01;;;;;;;2.57;2.47;;;;;;;15.67;100.00;97153.50;4981072;28;20722;-58
2023/09/02 00:05:29;;;;;;;4.87;2.57;;;;;;;15.68;100.00;97147.13;5040263;28;20799;-59
2023/09/02 00:07:58;;;;;;;3.03;2.50;;;;;;;15.68;100.00;97145.28;5037218;28;20235;-59
2023/09/02 00:10:25;;;;;;;2.50;2.30;;;;;;;15.67;100.00;97140.97;5036809;28;20238;-57
2023/09/02 00:12:53;;;;;;;2.97;2.77;;;;;;;15.66;100.00;97143.84;5035662;28;20238;-58
2023/09/02 00:15:21;;;;;;;2.77;2.63;;;;;;;15.57;100.00;97140.66;5038243;28;20204;-60
2023/09/02 00:17:48;;;;;;;2.77;2.60;;;;;;;15.49;100.00;97145.19;4906439;28;20254;-59
2023/09/02 00:20:17;;;;;;;3.07;2.63;;;;;;;15.43;100.00;97154.06;5038192;28;21000;-60
2023/09/02 00:22:45;;;;;;;3.27;2.60;;;;;;;15.40;100.00;97151.03;5035252;28;20768;-60
2023/09/02 00:25:14;;;;;;;3.10;2.90;;;;;;;15.36;100.00;97147.16;5043001;28;20316;-59
2023/09/02 00:27:42;;;;;;;2.63;2.50;;;;;;;15.36;100.00;97152.50;5038082;28;20741;-59
2023/09/02 00:30:10;;;;;;;3.10;2.90;;;;;;;15.31;100.00;97140.59;5045527;28;20263;-58
2023/09/02 00:32:38;;;;;;;3.03;2.83;;;;;;;15.26;100.00;97140.41;4977107;28;20258;-59
2023/09/02 00:35:06;;;;;;;2.30;2.20;;;;;;;15.22;100.00;97141.09;5038201;28;20214;-58
2023/09/02 00:37:34;;;;;;;3.90;2.80;;;;;;;15.13;100.00;97143.19;4982901;28;20307;-59
2023/09/02 00:40:01;;;;;;;2.40;2.20;;;;;;;15.09;100.00;97147.31;5040568;28;20433;-58
2023/09/02 00:42:31;;;;;;;3.00;2.80;;;;;;;14.97;100.00;97133.81;5029953;28;20210;-54
2023/09/02 00:44:59;;;;;;;2.70;2.60;;;;;;;14.99;100.00;97147.78;5037458;28;20254;-54
2023/09/02 00:47:27;;;;;;;5.93;2.77;;;;;;;14.92;100.00;97155.00;5034341;28;20306;-55
2023/09/02 00:49:55;;;;;;;2.47;2.37;;;;;;;14.83;100.00;97149.91;5044914;28;20741;-57
2023/09/02 00:52:23;;;;;;;4.50;2.60;;;;;;;14.80;100.00;97145.00;4912408;28;20237;-56
2023/09/02 00:54:51;;;;;;;3.57;3.00;;;;;;;14.79;100.00;97153.19;5045910;28;20282;-58
2023/09/02 00:57:18;;;;;;;3.10;3.00;;;;;;;14.73;100.00;97150.34;5034643;28;20293;-57
2023/09/02 00:59:47;;;;;;;3.33;3.03;;;;;;;14.71;100.00;97147.06;5048500;28;20292;-58
2023/09/02 01:02:15;;;;;;;3.30;3.10;;;;;;;14.73;100.00;97149.53;4985621;28;20692;-59
2023/09/02 01:04:44;;;;;;;2.77;2.60;;;;;;;14.79;100.00;97153.19;5045173;28;20254;-55
2023/09/02 01:07:12;;;;;;;2.80;2.60;;;;;;;14.81;100.00;97151.13;5035637;28;20211;-58
2023/09/02 01:09:40;;;;;;;3.20;3.07;;;;;;;14.77;100.00;97148.06;5043804;28;20282;-55
2023/09/02 01:12:08;;;;;;;3.13;2.93;;;;;;;14.69;100.00;97140.28;4987646;28;20307;-58
2023/09/02 01:14:36;;;;;;;3.00;2.80;;;;;;;14.70;100.00;97147.25;5043103;28;20258;-58
2023/09/02 01:17:05;;;;;;;3.50;3.00;;;;;;;14.66;100.00;97148.69;5035627;28;20669;-58
2023/09/02 01:19:33;;;;;;;2.87;2.67;;;;;;;14.60;100.00;97153.84;5040472;28;20219;-58
2023/09/02 01:22:12;;;;;;;2.67;2.57;;;;;;;14.56;100.00;97151.81;5032365;28;20752;-59
2023/09/02 01:24:55;;;;;;;3.33;2.80;;;;;;;14.52;100.00;97145.25;5041045;28;20219;-59
2023/09/02 01:27:29;;;;;;;3.50;3.20;;;;;;;14.46;100.00;97153.06;4907412;28;20226;-58
2023/09/02 01:30:02;;;;;;;2.93;2.73;;;;;;;14.40;100.00;97145.91;5036485;28;20224;-59
2023/09/02 01:32:33;;;;;;;2.97;2.87;;;;;;;14.35;100.00;97144.91;4981669;28;20779;-56
2023/09/02 01:35:04;;;;;;;3.03;2.90;;;;;;;14.29;100.00;97149.22;5043278;28;20223;-59
2023/09/02 01:37:33;;;;;;;2.80;2.70;;;;;;;14.25;100.00;97156.81;5039840;28;20214;-59
2023/09/02 01:40:04;;;;;;;2.97;2.70;;;;;;;14.19;100.00;97158.44;5040500;28;20330;-58
2023/09/02 01:42:34;;;;;;;6.60;3.20;;;;;;;14.22;100.00;97164.41;5035589;28;20204;-58
2023/09/02 01:45:02;;;;;;;3.10;2.90;;;;;;;14.21;100.00;97162.78;5047879;28;20309;-57
2023/09/02 01:47:30;;;;;;;3.00;2.90;;;;;;;14.17;100.00;97175.69;4985243;28;20226;-56
2023/09/02 01:49:59;;;;;;;3.50;3.30;;;;;;;14.15;100.00;97170.56;4973119;28;20234;-60
2023/09/02 01:52:27;;;;;;;3.17;3.07;;;;;;;14.05;100.00;97162.16;4972711;28;20678;-56
2023/09/02 01:54:55;;;;;;;3.67;3.10;;;;;;;14.02;100.00;97165.25;5033281;28;20254;-58
2023/09/02 01:57:24;;;;;;;3.20;3.00;;;;;;;13.97;100.00;97170.38;4945362;28;21953;-56
2023/09/02 01:59:53;;;;;;;3.07;2.67;;;;;;;13.95;100.00;97167.09;5047101;28;20246;-56
2023/09/02 02:02:20;;;;;;;3.30;3.10;;;;;;;13.93;100.00;97169.16;4976757;28;20203;-60
2023/09/02 02:04:52;;;;;;;3.37;2.90;;;;;;;13.91;100.00;97168.53;5037731;28;20230;-61
2023/09/02 02:07:21;;;;;;;3.40;3.20;;;;;;;13.93;100.00;97171.81;5018050;28;20322;-60
2023/09/02 02:09:51;;;;;;;3.93;3.50;;;;;;;13.99;100.00;97173.66;5041015;28;20222;-59
2023/09/02 02:12:20;;;;;;;3.77;3.57;;;;;;;14.01;100.00;97160.94;5035549;28;20203;-55
2023/09/02 02:14:48;;;;;;;3.60;3.40;;;;;;;14.15;100.00;97183.06;5041527;28;20664;-56
2023/09/02 02:17:17;;;;;;;4.40;3.97;;;;;;;14.22;100.00;97185.75;4981726;28;20778;-59
2023/09/02 02:19:45;;;;;;;4.77;4.43;;;;;;;14.30;100.00;97182.84;5040082;28;20939;-55
2023/09/02 02:22:13;;;;;;;4.73;4.43;;;;;;;14.35;100.00;97175.03;5036140;28;20219;-59
2023/09/02 02:24:40;;;;;;;4.40;4.00;;;;;;;14.39;100.00;97168.25;5038597;28;20322;-58
2023/09/02 02:27:09;;;;;;;4.30;4.00;;;;;;;14.44;100.00;97168.44;4947122;28;22447;-60
2023/09/02 02:29:37;;;;;;;4.60;4.27;;;;;;;14.46;100.00;97177.06;5037016;28;20235;-58
2023/09/02 02:32:05;;;;;;;4.50;4.20;;;;;;;14.33;100.00;97159.25;4991404;28;21098;-59
2023/09/02 02:34:34;;;;;;;4.03;3.73;;;;;;;14.41;100.00;97170.75;5045309;28;20234;-58
2023/09/02 02:37:02;;;;;;;4.20;4.00;;;;;;;14.41;100.00;97174.22;5038201;28;20206;-57
2023/09/02 02:39:30;;;;;;;4.33;4.03;;;;;;;14.43;100.00;97174.81;5041214;28;20665;-58
2023/09/02 02:41:57;;;;;;;4.77;4.37;;;;;;;14.44;100.00;97175.66;5037135;28;20960;-58
2023/09/02 02:44:25;;;;;;;4.90;4.53;;;;;;;14.39;100.00;97181.59;5022099;28;20210;-58
2023/09/02 02:46:53;;;;;;;4.70;4.40;;;;;;;14.39;100.00;97191.41;4996326;28;20211;-57
2023/09/02 02:49:21;;;;;;;4.33;4.13;;;;;;;14.36;100.00;97181.19;5020708;28;20247;-58
2023/09/02 02:51:50;;;;;;;4.07;3.73;;;;;;;14.39;100.00;97191.41;4996382;28;20215;-59
2023/09/02 02:54:17;;;;;;;5.33;4.93;;;;;;;14.36;100.00;97186.50;5036304;28;20679;-57
2023/09/02 02:56:45;;;;;;;4.17;3.87;;;;;;;14.35;100.00;97192.88;5029032;28;20227;-57
2023/09/02 02:59:13;;;;;;;4.43;4.13;;;;;;;14.22;100.00;97180.41;5037264;28;20227;-58
2023/09/02 03:01:41;;;;;;;5.00;4.70;;;;;;;14.32;100.00;97194.91;4956367;28;20210;-58
2023/09/02 03:04:08;;;;;;;6.80;5.40;;;;;;;14.29;100.00;97199.88;5042764;28;20821;-58
2023/09/02 03:06:36;;;;;;;5.73;4.20;;;;;;;14.32;100.00;97196.78;4976029;28;20310;-60
2023/09/02 03:09:06;;;;;;;4.70;4.43;;;;;;;14.32;100.00;97197.59;5038570;28;20293;-57
2023/09/02 03:11:33;;;;;;;3.30;3.20;;;;;;;14.36;100.00;97202.50;5038405;28;20297;-57
2023/09/02 03:14:01;;;;;;;3.37;3.17;;;;;;;14.36;100.00;97192.66;5044390;28;20199;-56
2023/09/02 03:16:28;;;;;;;3.70;3.40;;;;;;;14.38;100.00;97195.94;5035724;28;20307;-56
2023/09/02 03:18:56;;;;;;;3.10;3.00;;;;;;;14.38;100.00;97192.44;5040776;28;20310;-57
2023/09/02 03:21:24;;;;;;;2.70;2.60;;;;;;;14.36;100.00;97197.16;5031769;28;20212;-59
2023/09/02 03:23:51;;;;;;;3.50;3.30;;;;;;;14.36;100.00;97197.16;5040041;28;20277;-59
2023/09/02 03:26:24;;;;;;;2.83;2.70;;;;;;;14.33;100.00;97195.75;4976871;28;20220;-59
2023/09/02 03:28:52;;;;;;;3.57;3.47;;;;;;;14.33;100.00;97193.09;5038174;28;20287;-57
2023/09/02 03:31:20;;;;;;;3.50;3.30;;;;;;;14.31;100.00;97193.28;4945268;28;20295;-58
2023/09/02 03:33:48;;;;;;;3.07;2.97;;;;;;;14.26;100.00;97197.63;5040415;28;20210;-58
2023/09/02 03:36:16;;;;;;;3.13;3.03;;;;;;;14.27;100.00;97201.91;4982598;28;20518;-57
2023/09/02 03:38:44;;;;;;;4.43;4.13;;;;;;;14.26;100.00;97201.09;5038135;28;20285;-57
2023/09/02 03:41:12;;;;;;;3.80;3.60;;;;;;;14.32;100.00;97204.78;5035658;28;20223;-58
2023/09/02 03:43:41;;;;;;;3.90;3.70;;;;;;;14.31;100.00;97203.94;5039621;28;20203;-56
2023/09/02 03:46:09;;;;;;;5.23;4.47;;;;;;;14.26;100.00;97202.94;5034969;28;20602;-59
2023/09/02 03:48:37;;;;;;;3.77;3.57;;;;;;;14.32;100.00;97202.13;5037442;28;20251;-57
2023/09/02 03:51:11;;;;;;;3.60;3.40;;;;;;;14.30;100.00;97196.97;4975334;28;20794;-59
2023/09/02 03:53:38;;;;;;;5.07;3.97;;;;;;;14.33;100.00;97198.41;5041198;28;20200;-58
2023/09/02 03:56:06;;;;;;;3.90;3.70;;;;;;;14.35;100.00;97199.03;5036637;28;20219;-55
2023/09/02 03:58:34;;;;;;;14.30;6.00;;;;;;;14.38;100.00;97200.44;5037979;28;20313;-57
2023/09/02 04:01:03;;;;;;;4.00;3.80;;;;;;;14.33;100.00;97196.56;4983518;28;20207;-58
2023/09/02 04:03:35;;;;;;;4.03;3.83;;;;;;;14.35;100.00;97204.34;5037104;28;20203;-57
2023/09/02 04:06:03;;;;;;;3.37;3.27;;;;;;;14.32;100.00;97202.91;4952800;28;20286;-57
2023/09/02 04:08:33;;;;;;;3.90;3.70;;;;;;;14.31;100.00;97209.28;5041894;28;21651;-56
2023/09/02 04:11:02;;;;;;;3.73;3.47;;;;;;;14.29;100.00;97207.84;4987504;28;20203;-56
2023/09/02 04:13:30;;;;;;;3.83;3.63;;;;;;;14.28;100.00;97200.91;5037865;28;20213;-55
2023/09/02 04:16:00;;;;;;;3.30;3.20;;;;;;;14.32;100.00;97215.44;5039096;28;20293;-57
2023/09/02 04:18:30;;;;;;;2.90;2.80;;;;;;;14.29;100.00;97219.31;5040802;28;20373;-58
2023/09/02 04:21:00;;;;;;;3.40;3.30;;;;;;;14.28;100.00;97215.03;5036970;28;20203;-58
2023/09/02 04:23:28;;;;;;;3.73;3.53;;;;;;;14.27;100.00;97215.25;5038310;28;20211;-57
2023/09/02 04:25:57;;;;;;;3.13;3.03;;;;;;;14.16;100.00;97219.34;5035949;28;20281;-55
2023/09/02 04:28:25;;;;;;;3.27;3.17;;;;;;;14.07;100.00;97216.06;5041330;28;20770;-58
2023/09/02 04:30:55;;;;;;;3.23;3.13;;;;;;;14.01;100.00;97222.22;5039893;28;20195;-58
2023/09/02 04:33:24;;;;;;;2.83;2.73;;;;;;;14.01;100.00;97227.53;5037390;28;20848;-60
2023/09/02 04:35:53;;;;;;;3.17;3.07;;;;;;;14.04;100.00;97227.13;5013336;28;20222;-56
2023/09/02 04:38:21;;;;;;;3.37;3.20;;;;;;;14.00;100.00;97216.06;5035587;28;20642;-56
2023/09/02 04:40:49;;;;;;;3.63;3.43;;;;;;;14.11;100.00;97224.47;4906761;28;20698;-58
2023/09/02 04:43:16;;;;;;;4.97;4.57;;;;;;;14.15;100.00;97233.69;5044851;28;20285;-56
2023/09/02 04:45:44;;;;;;;6.33;5.93;;;;;;;14.18;100.00;97234.09;4981941;28;20643;-59
2023/09/02 04:48:14;;;;;;;4.30;4.10;;;;;;;14.19;100.00;97243.72;4965636;28;20267;-56
2023/09/02 04:50:41;;;;;;;3.70;3.50;;;;;;;14.12;100.00;97237.56;5034530;28;20298;-55
2023/09/02 04:53:10;;;;;;;3.50;3.37;;;;;;;14.22;100.00;97242.50;5033080;28;20227;-54
2023/09/02 04:55:39;;;;;;;3.67;3.37;;;;;;;14.09;100.00;97251.31;5038266;28;20483;-60
2023/09/02 04:58:07;;;;;;;4.17;3.87;;;;;;;14.12;100.00;97258.09;4987708;28;20753;-57
2023/09/02 05:00:35;;;;;;;5.43;3.93;;;;;;;14.01;100.00;97256.84;5037667;28;20239;-57
2023/09/02 05:03:03;;;;;;;3.83;3.63;;;;;;;14.15;100.00;97257.69;5037233;28;20204;-60
2023/09/02 05:05:32;;;;;;;4.50;4.20;;;;;;;14.15;100.00;97252.34;5026175;28;20246;-59
2023/09/02 05:08:00;;;;;;;4.83;4.40;;;;;;;14.18;100.00;97260.72;4961776;28;20237;-58
2023/09/02 05:10:29;;;;;;;4.17;3.90;;;;;;;14.26;100.00;97256.25;5017597;28;20208;-58
2023/09/02 05:12:57;;;;;;;5.27;4.50;;;;;;;14.22;100.00;97268.34;4883963;28;20239;-61
2023/09/02 05:15:24;;;;;;;3.77;3.57;;;;;;;14.29;100.00;97271.81;5014265;28;20743;-57
2023/09/02 05:17:53;;;;;;;4.57;4.30;;;;;;;14.41;100.00;97269.34;4960986;28;20208;-58
2023/09/02 05:20:21;;;;;;;4.23;4.03;;;;;;;14.50;100.00;97272.59;5013589;28;20219;-60
2023/09/02 05:22:48;;;;;;;3.97;3.73;;;;;;;14.44;100.00;97269.75;5016668;28;20287;-61
2023/09/02 05:25:16;;;;;;;3.87;3.53;;;;;;;14.47;100.00;97273.84;5014814;28;20239;-62
2023/09/02 05:27:45;;;;;;;4.33;3.53;;;;;;;14.33;100.00;97276.50;4961762;28;20220;-61
2023/09/02 05:30:13;;;;;;;3.50;3.40;;;;;;;14.37;100.00;97274.28;5019786;28;20231;-60
2023/09/02 05:32:41;;;;;;;4.20;3.83;;;;;;;14.36;100.00;97287.78;5013492;28;20308;-59
2023/09/02 05:35:09;;;;;;;3.10;3.00;;;;;;;14.39;100.00;97274.88;5015942;28;20228;-58
2023/09/02 05:37:36;;;;;;;4.93;3.60;;;;;;;14.42;100.00;97276.31;5020833;28;20200;-58
2023/09/02 05:40:05;;;;;;;3.50;3.30;;;;;;;14.54;100.00;97289.81;5019400;28;20252;-59
2023/09/02 05:42:33;;;;;;;3.00;2.90;;;;;;;14.59;100.00;97292.72;4888866;28;20906;-59
2023/09/02 05:45:02;;;;;;;4.10;3.90;;;;;;;14.41;100.00;97288.00;5022245;28;20262;-60
2023/09/02 05:47:30;;;;;;;5.63;5.20;;;;;;;14.51;100.00;97288.41;4965063;28;23093;-55
2023/09/02 05:49:58;;;;;;;5.03;3.97;;;;;;;14.48;100.00;97286.97;5020338;28;20751;-58
2023/09/02 05:52:26;;;;;;;6.70;4.20;;;;;;;14.45;100.00;97287.38;4955078;28;20927;-58
2023/09/02 05:54:53;;;;;;;3.50;3.40;;;;;;;14.69;100.00;97298.44;5014713;28;20232;-56
2023/09/02 05:57:21;;;;;;;3.80;3.60;;;;;;;14.70;100.00;97293.91;5015388;28;20236;-57
2023/09/02 05:59:48;;;;;;;4.00;3.80;;;;;;;14.78;100.00;97296.41;5022976;28;20224;-56
2023/09/02 06:02:17;;;;;;;4.10;3.43;;;;;;;14.85;100.00;97301.72;4968884;28;20208;-58
2023/09/02 06:04:45;;;;;;;4.03;3.83;;;;;;;14.94;100.00;97300.44;5015028;28;20642;-57
2023/09/02 06:07:12;;;;;;;11.03;4.50;;;;;;;14.81;100.00;97301.31;5020093;28;20734;-58
2023/09/02 06:09:40;;;;;;;7.87;7.27;;;;;;;14.95;100.00;97306.63;5020233;28;20735;-57
2023/09/02 06:12:08;;;;;;;8.53;7.93;;;;;;;15.05;100.00;97299.00;5013196;28;20212;-55
2023/09/02 06:14:36;;;;;;;3.93;3.53;;;;;;;15.08;100.00;97292.44;5013304;28;20296;-57
2023/09/02 06:17:04;;;;;;;3.83;3.63;;;;;;;15.13;100.00;97304.09;4926196;28;22661;-59
2023/09/02 06:19:34;;;;;;;4.57;4.27;;;;;;;15.28;100.00;97305.72;5018408;28;20270;-58
2023/09/02 06:22:02;;;;;;;4.57;4.27;;;;;;;15.41;100.00;97299.50;4961767;28;20218;-59
2023/09/02 06:24:29;;;;;;;7.90;4.80;;;;;;;15.53;100.00;97303.13;5020480;28;20286;-57
2023/09/02 06:27:03;;;;;;;4.60;4.40;;;;;;;15.70;100.00;97300.78;5013224;28;20814;-56
2023/09/02 06:29:32;;;;;;;4.30;4.10;;;;;;;15.71;100.00;97299.75;5017830;28;20310;-57
2023/09/02 06:31:59;;;;;;;4.23;4.03;;;;;;;15.89;100.00;97293.72;5014696;28;20384;-60
2023/09/02 06:34:28;;;;;;;4.87;4.57;;;;;;;15.74;100.00;97285.16;5021499;28;20236;-57
2023/09/02 06:36:57;;;;;;;4.83;4.53;;;;;;;15.87;100.00;97300.25;4970746;28;20314;-57
2023/09/02 06:39:25;;;;;;;5.47;5.07;;;;;;;16.05;100.00;97292.38;5015343;28;20232;-56
2023/09/02 06:41:53;;;;;;;7.00;6.50;;;;;;;16.22;100.00;97294.50;5016038;28;20193;-59
2023/09/02 06:44:20;;;;;;;5.90;5.50;;;;;;;16.29;100.00;97289.94;5020657;28;20205;-60
2023/09/02 06:46:48;;;;;;;5.00;4.70;;;;;;;16.27;100.00;97293.88;4944198;28;20218;-58
2023/09/02 06:49:16;;;;;;;4.93;4.53;;;;;;;16.53;100.00;97286.66;5015297;28;20223;-56
2023/09/02 06:51:43;;;;;;;4.10;3.90;;;;;;;16.73;100.00;97289.94;4888996;28;20277;-59
2023/09/02 06:54:13;;;;;;;4.70;4.40;;;;;;;17.08;100.00;97288.63;5020055;28;20219;-57
2023/09/02 06:56:40;;;;;;;4.83;4.53;;;;;;;17.20;100.00;97297.53;4964336;28;20271;-58
2023/09/02 06:59:08;;;;;;;4.10;3.80;;;;;;;16.58;100.00;97279.59;5005361;28;20277;-58
2023/09/02 07:01:36;;;;;;;4.10;3.90;;;;;;;16.78;100.00;97295.47;4970930;28;20235;-56
2023/09/02 07:04:04;;;;;;;4.27;4.07;;;;;;;16.97;100.00;97298.16;5017213;28;20212;-61
2023/09/02 07:06:32;;;;;;;4.23;4.03;;;;;;;17.05;100.00;97289.88;5013947;28;20204;-58
2023/09/02 07:08:59;;;;;;;4.37;4.17;;;;;;;17.18;100.00;97296.94;5014277;28;20239;-58
2023/09/02 07:11:29;;;;;;;4.77;4.47;;;;;;;16.94;100.00;97295.94;4968421;28;20227;-56
2023/09/02 07:13:57;;;;;;;4.93;4.63;;;;;;;16.78;100.00;97308.03;5014753;28;20692;-59
2023/09/02 07:16:25;;;;;;;4.63;4.23;;;;;;;16.83;100.00;97304.66;5014473;28;20733;-59
2023/09/02 07:18:52;;;;;;;4.50;4.20;;;;;;;16.97;100.00;97310.72;5018738;28;20399;-59
2023/09/02 07:21:22;;;;;;;5.07;4.67;;;;;;;16.85;100.00;97297.25;5015583;28;20209;-59
2023/09/02 07:23:51;;;;;;;4.90;4.50;;;;;;;16.92;100.00;97308.72;5014305;28;20436;-60
2023/09/02 07:26:21;;;;;;;4.70;4.40;;;;;;;16.77;100.00;97301.84;4885401;28;20216;-59
2023/09/02 07:28:50;;;;;;;4.43;4.13;;;;;;;17.25;100.00;97312.94;5019205;28;20305;-59
2023/09/02 07:31:18;;;;;;;4.83;4.53;;;;;;;17.31;100.00;97305.84;4958605;28;20893;-59
2023/09/02 07:33:46;;;;;;;5.40;5.10;;;;;;;17.35;100.00;97285.59;5010333;28;20523;-59
2023/09/02 07:36:14;;;;;;;5.03;4.63;;;;;;;17.54;100.00;97302.47;4960652;28;20220;-59
2023/09/02 07:38:44;;;;;;;4.70;4.40;;;;;;;17.71;100.00;97296.50;5013650;28;20228;-58
2023/09/02 07:41:11;;;;;;;3.93;3.73;;;;;;;17.85;100.00;97289.09;5015112;28;20687;-59
2023/09/02 07:43:39;;;;;;;5.43;4.17;;;;;;;17.76;100.00;97294.75;5015652;28;20408;-58
2023/09/02 07:46:11;;;;;;;3.77;3.47;;;;;;;17.98;100.00;97296.09;4958215;28;20471;-56
2023/09/02 07:48:39;;;;;;;4.33;4.03;;;;;;;18.20;100.00;97299.91;5012212;28;20239;-59
2023/09/02 07:51:06;;;;;;;4.00;3.73;;;;;;;17.92;100.00;97300.53;5013713;28;20554;-57
2023/09/02 07:53:34;;;;;;;3.50;3.30;;;;;;;18.29;100.00;97299.56;5018061;28;20220;-57
2023/09/02 07:56:02;;;;;;;4.33;3.60;;;;;;;18.74;100.00;97307.06;5010589;28;20286;-58
2023/09/02 07:58:30;;;;;;;3.40;3.20;;;;;;;18.79;100.00;97314.44;5014727;28;20282;-59
2023/09/02 08:00:58;;;;;;;3.43;3.23;;;;;;;18.62;100.00;97311.63;4883245;28;20676;-60
2023/09/02 08:03:27;;;;;;;3.43;3.23;;;;;;;18.72;100.00;97317.22;5016559;28;20237;-60
2023/09/02 08:05:55;;;;;;;3.53;3.23;;;;;;;18.91;100.00;97309.06;4962648;28;20219;-60
2023/09/02 08:08:23;;;;;;;3.00;2.83;;;;;;;18.76;100.00;97310.34;5015732;28;20228;-57
2023/09/02 08:11:01;;;;;;;3.40;3.20;;;;;;;18.99;100.00;97307.91;5012264;28;20741;-58
2023/09/02 08:13:29;;;;;;;3.27;3.07;;;;;;;19.11;100.00;97311.41;5017531;28;20301;-58
2023/09/02 08:15:57;;;;;;;2.63;2.53;;;;;;;18.98;100.00;97306.28;4966505;28;20266;-61
2023/09/02 08:18:24;;;;;;;3.57;2.73;;;;;;;19.04;100.00;97324.94;5019110;28;20266;-59
2023/09/02 08:20:53;;;;;;;2.70;2.60;;;;;;;19.33;100.00;97325.00;5012526;28;20204;-59
2023/09/02 08:23:21;;;;;;;2.50;2.37;;;;;;;19.24;100.00;97326.44;5016992;28;20228;-57
2023/09/02 08:25:49;;;;;;;2.80;2.10;;;;;;;19.58;100.00;97321.22;5012667;28;20212;-56
2023/09/02 08:28:17;;;;;;;3.10;2.90;;;;;;;19.78;100.00;97319.97;5015897;28;20219;-59
2023/09/02 08:30:45;;;;;;;2.40;2.30;;;;;;;19.64;100.00;97331.00;5013153;28;20912;-59
2023/09/02 08:33:12;;;;;;;2.60;2.50;;;;;;;19.81;100.00;97324.84;5016715;28;20203;-60
2023/09/02 08:35:40;;;;;;;1.87;1.77;;;;;;;19.93;100.00;97320.28;4882655;28;20289;-57
2023/09/02 08:38:09;;;;;;;2.63;2.50;;;;;;;19.73;100.00;97314.50;5013351;28;20692;-57
2023/09/02 08:40:43;;;;;;;2.70;2.50;;;;;;;19.84;100.00;97323.56;4961890;28;20228;-58
2023/09/02 08:43:12;;;;;;;2.93;2.73;;;;;;;19.85;100.00;97319.84;5016154;28;20208;-62
2023/09/02 08:45:42;;;;;;;2.70;2.50;;;;;;;19.70;100.00;97326.56;4964463;28;20305;-58
2023/09/02 08:48:12;;;;;;;2.30;2.20;;;;;;;19.65;100.00;97316.50;5015307;28;20352;-58
2023/09/02 08:50:40;;;;;;;2.80;2.57;;;;;;;19.57;100.00;97335.72;5014035;28;20654;-58
2023/09/02 08:53:09;;;;;;;3.43;2.20;;;;;;;19.64;100.00;97339.06;5016560;28;20200;-58
2023/09/02 08:55:37;;;;;;;2.13;1.93;;;;;;;19.80;100.00;97326.75;5011314;28;20357;-58
2023/09/02 08:58:05;;;;;;;2.60;2.40;;;;;;;20.06;100.00;97331.81;5016294;28;20378;-57
2023/09/02 09:00:33;;;;;;;2.20;2.10;;;;;;;20.24;100.00;97328.88;5013261;28;20618;-56
2023/09/02 09:03:03;;;;;;;2.23;2.13;;;;;;;20.28;100.00;97326.53;5017093;28;20215;-60
2023/09/02 09:05:31;;;;;;;1.90;1.80;;;;;;;20.02;100.00;97331.44;4879850;28;20840;-58
2023/09/02 09:08:00;;;;;;;2.27;2.17;;;;;;;20.39;100.00;97332.91;5020565;28;20223;-55
2023/09/02 09:10:32;;;;;;;2.07;1.97;;;;;;;20.46;100.00;97330.06;4971307;28;20205;-60
2023/09/02 09:13:00;;;;;;;2.00;1.90;;;;;;;20.65;100.00;97336.81;5019840;28;20308;-60
2023/09/02 09:15:27;;;;;;;3.17;1.77;;;;;;;21.02;100.00;97335.47;4971307;28;20315;-59
2023/09/02 09:17:55;;;;;;;2.43;2.33;;;;;;;21.06;100.00;97338.50;5022454;28;21051;-59
2023/09/02 09:20:23;;;;;;;2.30;2.20;;;;;;;21.21;100.00;97343.28;5016541;28;20208;-58
2023/09/02 09:22:52;;;;;;;2.67;2.30;;;;;;;21.60;100.00;97345.94;5016654;28;20204;-59
2023/09/02 09:25:20;;;;;;;2.37;2.27;;;;;;;21.72;100.00;97340.44;5013925;28;20590;-56
2023/09/02 09:27:50;;;;;;;2.60;2.40;;;;;;;21.81;100.00;97348.91;5020909;28;20207;-58
2023/09/02 09:30:28;;;;;;;4.17;2.13;;;;;;;21.38;100.00;97345.94;5014899;28;20337;-62
2023/09/02 09:33:00;;;;;;;1.87;1.77;;;;;;;21.12;100.00;97348.28;5019138;28;20261;-59
2023/09/02 09:35:29;;;;;;;2.37;2.27;;;;;;;20.98;100.00;97344.31;4882263;28;21141;-60
2023/09/02 09:37:57;;;;;;;2.03;1.93;;;;;;;21.17;100.00;97336.78;5020358;28;20200;-59
2023/09/02 09:40:31;;;;;;;1.90;1.80;;;;;;;21.29;100.00;97339.34;5016603;28;20331;-59
2023/09/02 09:43:01;;;;;;;2.20;2.10;;;;;;;21.26;100.00;97348.75;5016422;28;20211;-57
2023/09/02 09:45:30;;;;;;;2.00;1.90;;;;;;;21.54;100.00;97338.84;4967519;28;20223;-57
2023/09/02 09:47:59;;;;;;;1.90;1.73;;;;;;;21.88;100.00;97346.81;5019102;28;20208;-56
2023/09/02 09:50:28;;;;;;;1.60;1.50;;;;;;;22.16;100.00;97349.53;4967280;28;20235;-59
2023/09/02 09:53:01;;;;;;;1.70;1.60;;;;;;;22.16;100.00;97347.66;5018976;28;20226;-58
2023/09/02 09:55:30;;;;;;;1.33;1.33;;;;;;;22.22;100.00;97352.03;5018056;28;20215;-58
2023/09/02 09:57:58;;;;;;;1.60;1.50;;;;;;;22.34;100.00;97359.13;5019049;28;20254;-57
2023/09/02 10:00:29;;;;;;;2.83;1.70;;;;;;;22.53;100.00;97356.91;5017015;28;20273;-56
2023/09/02 10:02:56;;;;;;;1.83;1.73;;;;;;;22.33;100.00;97354.81;5022926;28;20207;-55
2023/09/02 10:05:26;;;;;;;1.37;1.37;;;;;;;22.21;100.00;97358.50;5010573;28;20667;-57
2023/09/02 10:08:01;;;;;;;1.73;1.63;;;;;;;22.46;100.00;97354.41;5017656;28;20205;-59
2023/09/02 10:10:31;;;;;;;2.00;1.83;;;;;;;22.57;100.00;97358.00;4885930;28;20228;-60
2023/09/02 10:12:58;;;;;;;1.70;1.57;;;;;;;22.59;100.00;97358.56;5017629;28;20200;-59
2023/09/02 10:15:28;;;;;;;2.13;1.93;;;;;;;22.50;100.00;97360.91;5015429;28;20220;-55
2023/09/02 10:17:57;;;;;;;2.03;1.93;;;;;;;22.65;100.00;97362.94;5019559;28;20227;-60
2023/09/02 10:20:26;;;;;;;1.70;1.60;;;;;;;22.74;100.00;97371.38;4965887;28;20665;-56
2023/09/02 10:22:54;;;;;;;1.60;1.50;;;;;;;22.86;100.00;97364.97;5016101;28;20282;-60
2023/09/02 10:25:25;;;;;;;3.07;2.00;;;;;;;22.50;100.00;97362.81;5014665;28;20606;-54
2023/09/02 10:28:00;;;;;;;1.80;1.70;;;;;;;22.78;100.00;97360.88;5019759;28;20208;-59
2023/09/02 10:30:36;;;;;;;2.63;2.47;;;;;;;22.69;100.00;97363.25;5014663;28;20717;-60
2023/09/02 10:33:12;;;;;;;1.50;1.40;;;;;;;22.58;100.00;97366.94;5018449;28;20336;-59
2023/09/02 10:35:43;;;;;;;2.00;1.90;;;;;;;22.87;100.00;97364.72;5012181;28;20568;-60
2023/09/02 10:38:12;;;;;;;2.70;2.60;;;;;;;23.07;100.00;97357.81;5021105;28;20262;-61
2023/09/02 10:40:41;;;;;;;1.93;1.83;;;;;;;23.01;100.00;97364.25;4882308;28;20243;-59
2023/09/02 10:43:09;;;;;;;2.00;1.80;;;;;;;23.03;100.00;97368.34;5015590;28;20200;-59
2023/09/02 10:45:39;;;;;;;1.30;1.30;;;;;;;22.92;100.00;97356.66;5013591;28;20207;-60
2023/09/02 10:48:07;;;;;;;2.67;2.47;;;;;;;22.71;100.00;97358.41;5022658;28;20648;-59
2023/09/02 10:50:35;;;;;;;2.43;2.07;;;;;;;22.54;100.00;97356.66;4968852;28;20275;-61
2023/09/02 10:53:01;;;;;;;1.37;1.30;;;;;;;22.46;100.00;97351.69;5022029;28;20212;-60
2023/09/02 10:56:00;;;;;;;1.33;1.23;;;;;;;22.72;100.00;97353.78;5013989;28;20216;-58
2023/09/02 10:58:28;;;;;;;1.90;1.80;;;;;;;23.65;100.00;97348.94;5016522;28;20255;-60
2023/09/02 11:00:57;;;;;;;2.43;2.20;;;;;;;23.70;100.00;97347.06;5018191;28;20631;-60
2023/09/02 11:03:44;;;;;;;1.70;1.60;;;;;;;23.73;100.00;97355.75;5017607;28;20208;-59
2023/09/02 11:06:14;;;;;;;1.50;1.50;;;;;;;23.59;100.00;97358.91;5018203;28;20204;-61
2023/09/02 11:08:44;;;;;;;2.90;1.90;;;;;;;23.34;100.00;97363.16;5015497;28;20297;-59
2023/09/02 11:11:12;;;;;;;1.70;1.60;;;;;;;23.24;100.00;97363.91;4897467;28;20228;-58
2023/09/02 11:14:18;;;;;;;1.17;1.17;;;;;;;23.35;100.00;97362.06;5021241;28;20215;-59
2023/09/02 11:17:34;;;;;;;1.27;1.27;;;;;;;23.25;100.00;97360.13;5019069;28;20475;-60
2023/09/02 11:20:03;;;;;;;0.90;0.90;;;;;;;23.56;100.00;97360.28;4930926;28;20239;-61
2023/09/02 11:22:51;;;;;;;1.90;1.80;;;;;;;23.70;100.00;97352.50;5015031;28;20251;-61
2023/09/02 11:25:30;;;;;;;1.50;1.50;;;;;;;23.86;100.00;97363.34;5016038;28;20291;-60
2023/09/02 11:27:58;;;;;;;1.07;1.07;;;;;;;23.91;100.00;97365.25;5018631;28;20208;-61
2023/09/02 11:30:29;;;;;;;1.27;1.27;;;;;;;23.83;100.00;97367.38;5014795;28;20228;-58
2023/09/02 11:32:58;;;;;;;1.50;1.40;;;;;;;23.66;100.00;97366.78;5020944;28;20199;-63